Jersey City, NJ (07399)

11:50 AM EDT on May 26, 2017 (GMT -0400)
Greenville Min. of Information Retrieval | | Change Station

Elev 56 ft 40.71 °N, 74.09 °W | Updated 12 seconds ago

Overcast
Overcast
72.3 °F
Feels Like 76 °F
N
10.0
Wind Variable Wind from WSW

Today
High -- | Low -- °F
--% Chance of Precip.
Yesterday
High -- | Low -- °F
Precip. -- in
Pressure 30.41 in
Visibility 10.0 miles
Clouds Mostly Cloudy 2400 ft
Overcast 3800 ft
Heat Index 76 °F
Dew Point 58 °F
Humidity 61%
Rainfall 0.00 in
Snow Depth Not available.
5:30 AM 8:16 PM
New Moon, 1% visible
METAR KJRB 261535Z 27005KT 10SM BKN024 OVC038 19/15 A2960 RMK AO2 SLP296 P1000 PWINO FZRANO RVRNO
Pressure 30.41 in
Visibility 10.0 miles
Clouds Mostly Cloudy 2400 ft
Overcast 3800 ft
Heat Index 76 °F
Dew Point 58 °F
Humidity 61%
Rainfall 0.00 in
Snow Depth Not available.
5:30 AM 8:16 PM
New Moon, 1% visible
METAR KJRB 261535Z 27005KT 10SM BKN024 OVC038 19/15 A2960 RMK AO2 SLP296 P1000 PWINO FZRANO RVRNO

Get Your Daily Forecast Email!

Thanks for signing up!

Be on the lookout for a verification email in your inbox.

You'll start receiving severe weather alerts in your inbox..

×

10-Day Weather Forecast

Almanac

Astronomy

May. 26, 2017 Rise Set
Actual Time
Civil Twilight
Nautical Twilight
Astronomical Twilight
Moon
Length of Visible Light
Length of Day
Tomorrow will be .
, % of the Moon is Illuminated

Today's Extremes

State Highs State Lows

Community

WunderPhotos

Category 6

Welcome to Category 6. This is the collective home for Weather Underground's featured writeups by Dr. Jeff Masters (right), Bob Henson (left), Chris Burt, and other regular contributors.

Nearby

Air Quality

  Air Quality AQ Index Pollutant
Not available.

Snow Depth

Station Depth Elevation

Earthquake Activity

City Distance Mag. Time & Date
Minimum magnitude displayed is 2.5.

Coastal Water Temperatures

Place Temperature

Stations

Nearby Weather Stations

Station Location Temp. Windchill Dew Point Humidity Wind Precip. Elev Updated Type
                   

Watches & Warnings

Coastal Flood Statement
Issued: 3:50 AM EDT May. 26, 2017 – National Weather Service

... Isolated minor coastal flooding possible tonight...

* locations... along the South Shore bays of NYC... lower New
York Harbor... Newark Bay... and the Arthur kill.

* Tidal departures... around 1/2 ft above normal.

* Timing... around the times of high tide tonight.

* Impacts... isolated minor flooding of the most vulnerable
Waterfront and shoreline roads.